TAM3034 SBSP-SBFL
Flight info
| Callsign | TAM3034 |
|---|---|
| Flight time | 0h 54m |
| Altitude | 34000 |
| Route | DCT MADNI UZ92 PUBIS DCT |
| Aircraft | A319/M-SDE3FGHIRWY/LB1 |
Departure
| Time | 2026-04-22 15:24 |
|---|---|
| Airport | Congonhas–Deputado Freitas Nobre Airport (SBSP) |
Arrival
| Time | 2026-04-22 16:18 |
|---|---|
| Airport | Hercílio Luz International Airport (SBFL) |
| Time | Latitude | Longitude | Altitude | Speed | Heading |
|---|---|---|---|---|---|
| 2026-04-22 14:52 | -23.62601 | -46.65907 | 2601 ft | 0 kts | 237° |
| 2026-04-22 15:17 | -23.62593 | -46.65893 | 2601 ft | 2 kts | 249° |
| 2026-04-22 15:17 | -23.62587 | -46.65876 | 2601 ft | 2 kts | 269° |
| 2026-04-22 15:17 | -23.62590 | -46.65858 | 2601 ft | 2 kts | 310° |
| 2026-04-22 15:17 | -23.62601 | -46.65847 | 2601 ft | 1 kts | 327° |
| 2026-04-22 15:18 | -23.62605 | -46.65844 | 2601 ft | 0 kts | 327° |
| 2026-04-22 15:20 | -23.62570 | -46.65851 | 2601 ft | 7 kts | 3° |
| 2026-04-22 15:20 | -23.62520 | -46.65854 | 2602 ft | 8 kts | 330° |
| 2026-04-22 15:20 | -23.62465 | -46.65893 | 2601 ft | 11 kts | 327° |
| 2026-04-22 15:21 | -23.62396 | -46.65942 | 2601 ft | 13 kts | 327° |
| 2026-04-22 15:21 | -23.62315 | -46.65998 | 2600 ft | 15 kts | 327° |
| 2026-04-22 15:21 | -23.62227 | -46.66051 | 2600 ft | 13 kts | 336° |
| 2026-04-22 15:21 | -23.62150 | -46.66103 | 2599 ft | 10 kts | 328° |
| 2026-04-22 15:22 | -23.62117 | -46.66126 | 2598 ft | 0 kts | 327° |
| 2026-04-22 15:22 | -23.62107 | -46.66132 | 2598 ft | 4 kts | 328° |
| 2026-04-22 15:22 | -23.62061 | -46.66137 | 2597 ft | 8 kts | 15° |
| 2026-04-22 15:23 | -23.62047 | -46.66078 | 2592 ft | 9 kts | 124° |
| 2026-04-22 15:23 | -23.62063 | -46.66066 | 2596 ft | 0 kts | 147° |
| 2026-04-22 15:23 | -23.62281 | -46.65914 | 2600 ft | 81 kts | 148° |
| 2026-04-22 15:23 | -23.62975 | -46.65435 | 2620 ft | 150 kts | 148° |
| 2026-04-22 15:24 | -23.63845 | -46.64826 | 3307 ft | 145 kts | 148° |
| 2026-04-22 15:24 | -23.64728 | -46.64293 | 3936 ft | 147 kts | 165° |
| 2026-04-22 15:24 | -23.65802 | -46.64243 | 4186 ft | 164 kts | 184° |
| 2026-04-22 15:24 | -23.67018 | -46.64327 | 4414 ft | 186 kts | 184° |
| 2026-04-22 15:25 | -23.68390 | -46.64418 | 4627 ft | 211 kts | 184° |
| 2026-04-22 15:25 | -23.69938 | -46.64520 | 4977 ft | 235 kts | 183° |
| 2026-04-22 15:25 | -23.71659 | -46.64634 | 5407 ft | 260 kts | 183° |
| 2026-04-22 15:25 | -23.73528 | -46.64768 | 6069 ft | 275 kts | 186° |
| 2026-04-22 15:26 | -23.75330 | -46.65510 | 6866 ft | 285 kts | 218° |
| 2026-04-22 15:26 | -23.76556 | -46.67207 | 7336 ft | 289 kts | 248° |
| 2026-04-22 15:26 | -23.77128 | -46.69302 | 7459 ft | 288 kts | 256° |
| 2026-04-22 15:26 | -23.77674 | -46.71406 | 7468 ft | 288 kts | 250° |
| 2026-04-22 15:27 | -23.78540 | -46.73374 | 7474 ft | 288 kts | 240° |
| 2026-04-22 15:27 | -23.79612 | -46.75229 | 7710 ft | 292 kts | 235° |
| 2026-04-22 15:27 | -23.80780 | -46.77042 | 8582 ft | 292 kts | 234° |
| 2026-04-22 15:27 | -23.81972 | -46.78859 | 9392 ft | 296 kts | 234° |
| 2026-04-22 15:28 | -23.83163 | -46.80701 | 10179 ft | 299 kts | 234° |
| 2026-04-22 15:28 | -23.84384 | -46.82624 | 10563 ft | 319 kts | 235° |
| 2026-04-22 15:28 | -23.85683 | -46.84672 | 10972 ft | 334 kts | 232° |
| 2026-04-22 15:28 | -23.87319 | -46.86489 | 11620 ft | 338 kts | 217° |
| 2026-04-22 15:29 | -23.89325 | -46.87828 | 12359 ft | 339 kts | 203° |
| 2026-04-22 15:29 | -23.91515 | -46.88567 | 13568 ft | 325 kts | 192° |
| 2026-04-22 15:29 | -23.93790 | -46.89009 | 13982 ft | 339 kts | 190° |
| 2026-04-22 15:30 | -23.97635 | -46.89702 | 15572 ft | 323 kts | 190° |
| 2026-04-22 15:30 | -24.00487 | -46.90199 | 17343 ft | 295 kts | 191° |
| 2026-04-22 15:30 | -24.02441 | -46.90535 | 18603 ft | 275 kts | 191° |
| 2026-04-22 15:30 | -24.04311 | -46.90857 | 19355 ft | 276 kts | 192° |
| 2026-04-22 15:31 | -24.06284 | -46.91207 | 19486 ft | 297 kts | 192° |
| 2026-04-22 15:31 | -24.08388 | -46.91587 | 19619 ft | 316 kts | 192° |
| 2026-04-22 15:31 | -24.10618 | -46.91991 | 19745 ft | 335 kts | 192° |
| 2026-04-22 15:31 | -24.12975 | -46.92413 | 19882 ft | 351 kts | 192° |
| 2026-04-22 15:32 | -24.15443 | -46.92850 | 20036 ft | 366 kts | 191° |
| 2026-04-22 15:32 | -24.17978 | -46.93295 | 20431 ft | 373 kts | 191° |
| 2026-04-22 15:32 | -24.20554 | -46.93746 | 20903 ft | 376 kts | 192° |
| 2026-04-22 15:32 | -24.23143 | -46.94201 | 21369 ft | 379 kts | 192° |
| 2026-04-22 15:33 | -24.25752 | -46.94664 | 21814 ft | 381 kts | 192° |
| 2026-04-22 15:33 | -24.28380 | -46.95132 | 22259 ft | 382 kts | 192° |
| 2026-04-22 15:33 | -24.30934 | -46.95585 | 23375 ft | 362 kts | 193° |
| 2026-04-22 15:33 | -24.33354 | -46.96009 | 24531 ft | 341 kts | 193° |
| 2026-04-22 15:34 | -24.34904 | -46.96278 | 25297 ft | 327 kts | 193° |
| 2026-04-22 15:34 | -24.37092 | -46.96659 | 26187 ft | 315 kts | 194° |
| 2026-04-22 15:34 | -24.39293 | -46.97056 | 26322 ft | 326 kts | 194° |
| 2026-04-22 15:34 | -24.41547 | -46.97469 | 26700 ft | 323 kts | 194° |
| 2026-04-22 15:35 | -24.43743 | -46.97863 | 27257 ft | 323 kts | 194° |
| 2026-04-22 15:35 | -24.45988 | -46.98268 | 27451 ft | 328 kts | 194° |
| 2026-04-22 15:35 | -24.48189 | -46.98658 | 28111 ft | 320 kts | 194° |
| 2026-04-22 15:35 | -24.50423 | -46.99059 | 28231 ft | 329 kts | 194° |
| 2026-04-22 15:36 | -24.52712 | -46.99472 | 28361 ft | 338 kts | 194° |
| 2026-04-22 15:36 | -24.54991 | -46.99878 | 29081 ft | 325 kts | 194° |
| 2026-04-22 15:36 | -24.57227 | -47.00274 | 29394 ft | 329 kts | 194° |
| 2026-04-22 15:36 | -24.59471 | -47.00843 | 29523 ft | 333 kts | 202° |
| 2026-04-22 15:37 | -24.61642 | -47.01760 | 29652 ft | 338 kts | 209° |
| 2026-04-22 15:37 | -24.63719 | -47.03011 | 29782 ft | 343 kts | 216° |
| 2026-04-22 15:37 | -24.65743 | -47.04453 | 29909 ft | 351 kts | 216° |
| 2026-04-22 15:37 | -24.67816 | -47.05927 | 30036 ft | 359 kts | 215° |
| 2026-04-22 15:38 | -24.69931 | -47.07425 | 30302 ft | 360 kts | 215° |
| 2026-04-22 15:38 | -24.74009 | -47.10291 | 31493 ft | 350 kts | 216° |
| 2026-04-22 15:38 | -24.76076 | -47.11757 | 31621 ft | 357 kts | 216° |
| 2026-04-22 15:39 | -24.78181 | -47.13252 | 31749 ft | 363 kts | 216° |
| 2026-04-22 15:39 | -24.80325 | -47.14777 | 31879 ft | 369 kts | 216° |
| 2026-04-22 15:39 | -24.82497 | -47.16322 | 32005 ft | 375 kts | 216° |
| 2026-04-22 15:39 | -24.84711 | -47.17893 | 32135 ft | 381 kts | 216° |
| 2026-04-22 15:40 | -24.86955 | -47.19489 | 32267 ft | 386 kts | 216° |
| 2026-04-22 15:40 | -24.89188 | -47.21072 | 33216 ft | 368 kts | 216° |
| 2026-04-22 15:40 | -24.91289 | -47.22562 | 33827 ft | 362 kts | 216° |
| 2026-04-22 15:40 | -24.93435 | -47.24091 | 34064 ft | 364 kts | 216° |
| 2026-04-22 15:41 | -24.97765 | -47.27190 | 34147 ft | 379 kts | 216° |
| 2026-04-22 15:41 | -25.02262 | -47.30404 | 34119 ft | 388 kts | 216° |
| 2026-04-22 15:42 | -25.06795 | -47.33639 | 34118 ft | 389 kts | 216° |
| 2026-04-22 15:42 | -25.11348 | -47.36890 | 34119 ft | 390 kts | 216° |
| 2026-04-22 15:43 | -25.15895 | -47.40135 | 34118 ft | 389 kts | 216° |
| 2026-04-22 15:43 | -25.20436 | -47.43380 | 34116 ft | 389 kts | 216° |
| 2026-04-22 15:44 | -25.24974 | -47.46631 | 34118 ft | 389 kts | 216° |
| 2026-04-22 15:44 | -25.29509 | -47.49891 | 34117 ft | 389 kts | 217° |
| 2026-04-22 15:45 | -25.34045 | -47.53146 | 34118 ft | 389 kts | 217° |
| 2026-04-22 15:45 | -25.38609 | -47.56422 | 34121 ft | 388 kts | 217° |
| 2026-04-22 15:46 | -25.43132 | -47.59686 | 34119 ft | 388 kts | 217° |
| 2026-04-22 15:46 | -25.47655 | -47.62943 | 34124 ft | 388 kts | 217° |
| 2026-04-22 15:47 | -25.52176 | -47.66196 | 34128 ft | 387 kts | 217° |
| 2026-04-22 15:47 | -25.56692 | -47.69461 | 34137 ft | 387 kts | 217° |
| 2026-04-22 15:48 | -25.61203 | -47.72725 | 34142 ft | 387 kts | 217° |
| 2026-04-22 15:48 | -25.65718 | -47.75984 | 34149 ft | 387 kts | 217° |
| 2026-04-22 15:49 | -25.67976 | -47.77615 | 34014 ft | 388 kts | 217° |
| 2026-04-22 15:49 | -25.70230 | -47.79242 | 33762 ft | 387 kts | 217° |
| 2026-04-22 15:49 | -25.72486 | -47.80872 | 33515 ft | 386 kts | 217° |
| 2026-04-22 15:49 | -25.74724 | -47.82492 | 33274 ft | 383 kts | 217° |
| 2026-04-22 15:50 | -25.76952 | -47.84109 | 32895 ft | 383 kts | 217° |
| 2026-04-22 15:50 | -25.79182 | -47.85733 | 32458 ft | 383 kts | 217° |
| 2026-04-22 15:50 | -25.81411 | -47.87352 | 32028 ft | 383 kts | 217° |
| 2026-04-22 15:50 | -25.83637 | -47.88971 | 31600 ft | 383 kts | 217° |
| 2026-04-22 15:51 | -25.85874 | -47.90595 | 31174 ft | 383 kts | 217° |
| 2026-04-22 15:51 | -25.88127 | -47.92232 | 30748 ft | 382 kts | 217° |
| 2026-04-22 15:51 | -25.90349 | -47.93848 | 30327 ft | 381 kts | 217° |
| 2026-04-22 15:51 | -25.92564 | -47.95458 | 29914 ft | 379 kts | 217° |
| 2026-04-22 15:52 | -25.94767 | -47.97060 | 29511 ft | 377 kts | 217° |
| 2026-04-22 15:52 | -25.96953 | -47.98650 | 29105 ft | 375 kts | 217° |
| 2026-04-22 15:52 | -25.99134 | -48.00235 | 28723 ft | 373 kts | 216° |
| 2026-04-22 15:52 | -26.01297 | -48.01808 | 28336 ft | 371 kts | 216° |
| 2026-04-22 15:53 | -26.03524 | -48.03257 | 27933 ft | 373 kts | 208° |
| 2026-04-22 15:53 | -26.05962 | -48.04269 | 27512 ft | 375 kts | 203° |
| 2026-04-22 15:53 | -26.08438 | -48.05194 | 27087 ft | 375 kts | 202° |
| 2026-04-22 15:53 | -26.10902 | -48.06113 | 26680 ft | 372 kts | 202° |
| 2026-04-22 15:54 | -26.13347 | -48.07025 | 26272 ft | 370 kts | 202° |
| 2026-04-22 15:54 | -26.15780 | -48.07935 | 25852 ft | 368 kts | 202° |
| 2026-04-22 15:54 | -26.18205 | -48.08845 | 25421 ft | 367 kts | 202° |
| 2026-04-22 15:54 | -26.20617 | -48.09752 | 24995 ft | 365 kts | 202° |
| 2026-04-22 15:55 | -26.23016 | -48.10655 | 24549 ft | 363 kts | 202° |
| 2026-04-22 15:55 | -26.25406 | -48.11554 | 24085 ft | 362 kts | 202° |
| 2026-04-22 15:55 | -26.27787 | -48.12450 | 23627 ft | 360 kts | 202° |
| 2026-04-22 15:55 | -26.30162 | -48.13341 | 23178 ft | 359 kts | 201° |
| 2026-04-22 15:56 | -26.32518 | -48.14225 | 22722 ft | 357 kts | 201° |
| 2026-04-22 15:56 | -26.34867 | -48.15110 | 22263 ft | 355 kts | 201° |
| 2026-04-22 15:56 | -26.37187 | -48.15984 | 21812 ft | 350 kts | 201° |
| 2026-04-22 15:56 | -26.39482 | -48.16847 | 21364 ft | 345 kts | 201° |
| 2026-04-22 15:57 | -26.41729 | -48.17695 | 20925 ft | 338 kts | 201° |
| 2026-04-22 15:57 | -26.43934 | -48.18525 | 20496 ft | 331 kts | 201° |
| 2026-04-22 15:57 | -26.46112 | -48.19348 | 20070 ft | 329 kts | 200° |
| 2026-04-22 15:57 | -26.48299 | -48.20175 | 19641 ft | 327 kts | 200° |
| 2026-04-22 15:58 | -26.50443 | -48.20984 | 19220 ft | 324 kts | 200° |
| 2026-04-22 15:58 | -26.52575 | -48.21787 | 18801 ft | 322 kts | 200° |
| 2026-04-22 15:58 | -26.54666 | -48.22576 | 18390 ft | 320 kts | 200° |
| 2026-04-22 15:58 | -26.56795 | -48.23382 | 17972 ft | 318 kts | 200° |
| 2026-04-22 15:59 | -26.58881 | -48.24173 | 17563 ft | 316 kts | 200° |
| 2026-04-22 15:59 | -26.60959 | -48.24962 | 17156 ft | 314 kts | 200° |
| 2026-04-22 15:59 | -26.62993 | -48.25733 | 16759 ft | 312 kts | 200° |
| 2026-04-22 15:59 | -26.65043 | -48.26508 | 16366 ft | 309 kts | 200° |
| 2026-04-22 16:00 | -26.67078 | -48.27278 | 15963 ft | 308 kts | 200° |
| 2026-04-22 16:00 | -26.69101 | -48.28045 | 15576 ft | 306 kts | 200° |
| 2026-04-22 16:00 | -26.71113 | -48.28811 | 15198 ft | 304 kts | 200° |
| 2026-04-22 16:00 | -26.73110 | -48.29569 | 14806 ft | 303 kts | 200° |
| 2026-04-22 16:01 | -26.75107 | -48.30326 | 14422 ft | 302 kts | 200° |
| 2026-04-22 16:01 | -26.77118 | -48.31089 | 14040 ft | 301 kts | 200° |
| 2026-04-22 16:01 | -26.79089 | -48.31837 | 13679 ft | 298 kts | 200° |
| 2026-04-22 16:01 | -26.81028 | -48.32570 | 13304 ft | 297 kts | 200° |
| 2026-04-22 16:02 | -26.83008 | -48.33315 | 12931 ft | 296 kts | 200° |
| 2026-04-22 16:02 | -26.84962 | -48.34052 | 12564 ft | 295 kts | 200° |
| 2026-04-22 16:02 | -26.86899 | -48.34788 | 12204 ft | 294 kts | 200° |
| 2026-04-22 16:02 | -26.88832 | -48.35525 | 11836 ft | 293 kts | 200° |
| 2026-04-22 16:03 | -26.90760 | -48.36260 | 11473 ft | 293 kts | 200° |
| 2026-04-22 16:03 | -26.92677 | -48.37028 | 11111 ft | 291 kts | 205° |
| 2026-04-22 16:03 | -26.94459 | -48.38117 | 10918 ft | 298 kts | 211° |
| 2026-04-22 16:03 | -26.96266 | -48.39284 | 10713 ft | 301 kts | 211° |
| 2026-04-22 16:04 | -26.98092 | -48.40454 | 10521 ft | 302 kts | 211° |
| 2026-04-22 16:04 | -26.99915 | -48.41617 | 10330 ft | 301 kts | 211° |
| 2026-04-22 16:04 | -27.01726 | -48.42771 | 10115 ft | 297 kts | 210° |
| 2026-04-22 16:04 | -27.03502 | -48.43903 | 9931 ft | 292 kts | 210° |
| 2026-04-22 16:05 | -27.04673 | -48.44648 | 9830 ft | 292 kts | 210° |
| 2026-04-22 16:05 | -27.06439 | -48.45774 | 9651 ft | 291 kts | 210° |
| 2026-04-22 16:05 | -27.08784 | -48.47276 | 9416 ft | 290 kts | 210° |
| 2026-04-22 16:05 | -27.09947 | -48.48024 | 9292 ft | 290 kts | 210° |
| 2026-04-22 16:06 | -27.11694 | -48.49148 | 9102 ft | 289 kts | 210° |
| 2026-04-22 16:06 | -27.13439 | -48.50270 | 8924 ft | 289 kts | 210° |
| 2026-04-22 16:06 | -27.15179 | -48.51392 | 8748 ft | 288 kts | 210° |
| 2026-04-22 16:06 | -27.16912 | -48.52511 | 8564 ft | 287 kts | 210° |
| 2026-04-22 16:07 | -27.18647 | -48.53629 | 8373 ft | 287 kts | 210° |
| 2026-04-22 16:07 | -27.20399 | -48.54757 | 8189 ft | 286 kts | 210° |
| 2026-04-22 16:07 | -27.22165 | -48.55721 | 8008 ft | 286 kts | 200° |
| 2026-04-22 16:07 | -27.24066 | -48.56401 | 7655 ft | 285 kts | 198° |
| 2026-04-22 16:08 | -27.25943 | -48.57063 | 7416 ft | 279 kts | 198° |
| 2026-04-22 16:08 | -27.27777 | -48.57709 | 7213 ft | 273 kts | 198° |
| 2026-04-22 16:08 | -27.29562 | -48.58338 | 7029 ft | 265 kts | 198° |
| 2026-04-22 16:08 | -27.31323 | -48.58959 | 6840 ft | 258 kts | 198° |
| 2026-04-22 16:09 | -27.32998 | -48.59549 | 6653 ft | 253 kts | 198° |
| 2026-04-22 16:09 | -27.34661 | -48.60134 | 6466 ft | 247 kts | 198° |
| 2026-04-22 16:09 | -27.36293 | -48.60710 | 6287 ft | 242 kts | 198° |
| 2026-04-22 16:09 | -27.37867 | -48.61266 | 6113 ft | 236 kts | 199° |
| 2026-04-22 16:10 | -27.39413 | -48.61815 | 5947 ft | 229 kts | 199° |
| 2026-04-22 16:10 | -27.40919 | -48.62350 | 5785 ft | 226 kts | 199° |
| 2026-04-22 16:10 | -27.42412 | -48.62882 | 5631 ft | 222 kts | 199° |
| 2026-04-22 16:10 | -27.43847 | -48.63392 | 5477 ft | 213 kts | 199° |
| 2026-04-22 16:11 | -27.45236 | -48.63881 | 5320 ft | 207 kts | 198° |
| 2026-04-22 16:11 | -27.46621 | -48.64369 | 5166 ft | 205 kts | 199° |
| 2026-04-22 16:11 | -27.47987 | -48.64856 | 5030 ft | 206 kts | 199° |
| 2026-04-22 16:11 | -27.49307 | -48.65361 | 4919 ft | 194 kts | 205° |
| 2026-04-22 16:12 | -27.50469 | -48.66095 | 4622 ft | 192 kts | 213° |
| 2026-04-22 16:12 | -27.51612 | -48.66870 | 4335 ft | 190 kts | 213° |
| 2026-04-22 16:12 | -27.52737 | -48.67635 | 4063 ft | 187 kts | 212° |
| 2026-04-22 16:12 | -27.53839 | -48.68383 | 3803 ft | 185 kts | 212° |
| 2026-04-22 16:13 | -27.54940 | -48.69130 | 3527 ft | 185 kts | 213° |
| 2026-04-22 16:13 | -27.56029 | -48.69875 | 3259 ft | 183 kts | 213° |
| 2026-04-22 16:13 | -27.57228 | -48.70308 | 2994 ft | 183 kts | 181° |
| 2026-04-22 16:13 | -27.58415 | -48.69904 | 2747 ft | 178 kts | 147° |
| 2026-04-22 16:14 | -27.59197 | -48.68864 | 2559 ft | 174 kts | 118° |
| 2026-04-22 16:14 | -27.59795 | -48.67693 | 2408 ft | 168 kts | 123° |
| 2026-04-22 16:14 | -27.60382 | -48.66590 | 2316 ft | 161 kts | 124° |
| 2026-04-22 16:14 | -27.60951 | -48.65531 | 2148 ft | 156 kts | 124° |
| 2026-04-22 16:15 | -27.61503 | -48.64506 | 1947 ft | 150 kts | 125° |
| 2026-04-22 16:15 | -27.62039 | -48.63513 | 1743 ft | 143 kts | 124° |
| 2026-04-22 16:15 | -27.62549 | -48.62572 | 1556 ft | 138 kts | 123° |
| 2026-04-22 16:15 | -27.63042 | -48.61659 | 1362 ft | 141 kts | 117° |
| 2026-04-22 16:16 | -27.63580 | -48.60661 | 1183 ft | 151 kts | 117° |
| 2026-04-22 16:16 | -27.64126 | -48.59653 | 990 ft | 151 kts | 117° |
| 2026-04-22 16:16 | -27.64671 | -48.58644 | 784 ft | 150 kts | 117° |
| 2026-04-22 16:16 | -27.65214 | -48.57639 | 586 ft | 150 kts | 118° |
| 2026-04-22 16:17 | -27.65754 | -48.56639 | 386 ft | 149 kts | 118° |
| 2026-04-22 16:17 | -27.66298 | -48.55630 | 191 ft | 149 kts | 118° |
| 2026-04-22 16:17 | -27.66825 | -48.54647 | 27 ft | 138 kts | 120° |
| 2026-04-22 16:17 | -27.67228 | -48.53900 | 23 ft | 71 kts | 121° |
| 2026-04-22 16:18 | -27.67425 | -48.53530 | 23 ft | 55 kts | 121° |
| 2026-04-22 16:18 | -27.67595 | -48.53216 | 26 ft | 21 kts | 122° |
| 2026-04-22 16:18 | -27.67690 | -48.53170 | 24 ft | 17 kts | 206° |
| 2026-04-22 16:18 | -27.67762 | -48.53266 | 24 ft | 13 kts | 286° |
| 2026-04-22 16:19 | -27.67722 | -48.53341 | 24 ft | 9 kts | 301° |
| 2026-04-22 16:19 | -27.67690 | -48.53400 | 26 ft | 8 kts | 301° |
| 2026-04-22 16:19 | -27.67645 | -48.53486 | 26 ft | 18 kts | 301° |
| 2026-04-22 16:19 | -27.67564 | -48.53636 | 24 ft | 25 kts | 301° |
| 2026-04-22 16:20 | -27.67477 | -48.53796 | 24 ft | 23 kts | 302° |
| 2026-04-22 16:20 | -27.67395 | -48.53952 | 25 ft | 23 kts | 301° |
| 2026-04-22 16:20 | -27.67312 | -48.54107 | 26 ft | 23 kts | 303° |
| 2026-04-22 16:20 | -27.67238 | -48.54243 | 26 ft | 13 kts | 300° |
| 2026-04-22 16:21 | -27.67219 | -48.54316 | 27 ft | 8 kts | 230° |
| 2026-04-22 16:21 | -27.67261 | -48.54356 | 27 ft | 8 kts | 209° |
| 2026-04-22 16:21 | -27.67301 | -48.54388 | 25 ft | 6 kts | 242° |
| 2026-04-22 16:21 | -27.67293 | -48.54421 | 26 ft | 4 kts | 302° |
| 2026-04-22 16:22 | -27.67270 | -48.54466 | 27 ft | 3 kts | 302° |
| 2026-04-22 16:22 | -27.67260 | -48.54484 | 27 ft | 2 kts | 301° |
| 2026-04-22 16:22 | -27.67248 | -48.54506 | 26 ft | 4 kts | 301° |
| 2026-04-22 16:23 | -27.67213 | -48.54584 | 25 ft | 5 kts | 264° |
| 2026-04-22 16:23 | -27.67237 | -48.54606 | 25 ft | 2 kts | 210° |
| 2026-04-22 16:23 | -27.67246 | -48.54612 | 25 ft | 1 kts | 209° |
| 2026-04-22 16:24 | -27.67252 | -48.54616 | 25 ft | 1 kts | 210° |